sensor_id;sensor_type;location;lat;lon;timestamp;temperature;humidity
32660;DHT22;19064;47.912;12.308;2023-03-04T00:00:49;1.00;99.90
32660;DHT22;19064;47.912;12.308;2023-03-04T00:03:17;1.00;99.90
32660;DHT22;19064;47.912;12.308;2023-03-04T00:05:45;1.00;99.90
32660;DHT22;19064;47.912;12.308;2023-03-04T00:08:14;1.00;99.90
32660;DHT22;19064;47.912;12.308;2023-03-04T00:10:42;1.00;99.90
32660;DHT22;19064;47.912;12.308;2023-03-04T00:13:10;0.90;99.90
32660;DHT22;19064;47.912;12.308;2023-03-04T00:15:42;0.80;99.90
32660;DHT22;19064;47.912;12.308;2023-03-04T00:18:10;0.70;99.90
32660;DHT22;19064;47.912;12.308;2023-03-04T00:20:37;0.80;99.90
32660;DHT22;19064;47.912;12.308;2023-03-04T00:23:05;0.80;99.90
32660;DHT22;19064;47.912;12.308;2023-03-04T00:25:33;0.80;99.90
32660;DHT22;19064;47.912;12.308;2023-03-04T00:28:01;0.90;99.90
32660;DHT22;19064;47.912;12.308;2023-03-04T00:30:29;1.00;99.90
32660;DHT22;19064;47.912;12.308;2023-03-04T00:32:58;1.00;99.90
32660;DHT22;19064;47.912;12.308;2023-03-04T00:35:26;1.10;99.90
32660;DHT22;19064;47.912;12.308;2023-03-04T00:37:54;1.10;99.90
32660;DHT22;19064;47.912;12.308;2023-03-04T00:40:21;1.20;99.90
32660;DHT22;19064;47.912;12.308;2023-03-04T00:42:49;1.20;99.90
32660;DHT22;19064;47.912;12.308;2023-03-04T00:45:17;1.20;99.90
32660;DHT22;19064;47.912;12.308;2023-03-04T00:47:44;1.20;99.90
32660;DHT22;19064;47.912;12.308;2023-03-04T00:50:14;1.20;99.90
32660;DHT22;19064;47.912;12.308;2023-03-04T00:52:42;1.10;99.90
32660;DHT22;19064;47.912;12.308;2023-03-04T00:55:10;1.10;99.90
32660;DHT22;19064;47.912;12.308;2023-03-04T00:57:38;1.00;99.90
32660;DHT22;19064;47.912;12.308;2023-03-04T01:00:06;1.00;99.90
32660;DHT22;19064;47.912;12.308;2023-03-04T01:02:34;0.90;99.90
32660;DHT22;19064;47.912;12.308;2023-03-04T01:05:01;0.90;99.90
32660;DHT22;19064;47.912;12.308;2023-03-04T01:07:31;0.90;99.90
32660;DHT22;19064;47.912;12.308;2023-03-04T01:10:01;0.80;99.90
32660;DHT22;19064;47.912;12.308;2023-03-04T01:12:28;0.80;99.90
32660;DHT22;19064;47.912;12.308;2023-03-04T01:14:56;0.90;99.90
32660;DHT22;19064;47.912;12.308;2023-03-04T01:17:24;0.80;99.90
32660;DHT22;19064;47.912;12.308;2023-03-04T01:19:54;0.90;99.90
32660;DHT22;19064;47.912;12.308;2023-03-04T01:22:22;0.90;99.90
32660;DHT22;19064;47.912;12.308;2023-03-04T01:24:51;0.90;99.90
32660;DHT22;19064;47.912;12.308;2023-03-04T01:27:19;0.90;99.90
32660;DHT22;19064;47.912;12.308;2023-03-04T01:29:47;0.90;99.90
32660;DHT22;19064;47.912;12.308;2023-03-04T01:32:17;0.90;99.90
32660;DHT22;19064;47.912;12.308;2023-03-04T01:34:45;0.90;99.90
32660;DHT22;19064;47.912;12.308;2023-03-04T01:37:13;0.90;99.90
32660;DHT22;19064;47.912;12.308;2023-03-04T01:39:41;0.80;99.90
32660;DHT22;19064;47.912;12.308;2023-03-04T01:42:16;0.80;99.90
32660;DHT22;19064;47.912;12.308;2023-03-04T01:44:44;0.70;99.90
32660;DHT22;19064;47.912;12.308;2023-03-04T01:47:12;0.70;99.90
32660;DHT22;19064;47.912;12.308;2023-03-04T01:49:40;0.70;99.90
32660;DHT22;19064;47.912;12.308;2023-03-04T01:52:09;0.80;99.90
32660;DHT22;19064;47.912;12.308;2023-03-04T01:54:37;0.80;99.90
32660;DHT22;19064;47.912;12.308;2023-03-04T01:57:14;0.70;99.90
32660;DHT22;19064;47.912;12.308;2023-03-04T01:59:43;0.60;99.90
32660;DHT22;19064;47.912;12.308;2023-03-04T02:02:10;0.50;99.90
32660;DHT22;19064;47.912;12.308;2023-03-04T02:04:38;0.50;99.90
32660;DHT22;19064;47.912;12.308;2023-03-04T02:07:08;0.40;99.90
32660;DHT22;19064;47.912;12.308;2023-03-04T02:09:36;0.40;99.90
32660;DHT22;19064;47.912;12.308;2023-03-04T02:12:04;0.40;99.90
32660;DHT22;19064;47.912;12.308;2023-03-04T02:14:33;0.40;99.90
32660;DHT22;19064;47.912;12.308;2023-03-04T02:17:01;0.30;99.90
32660;DHT22;19064;47.912;12.308;2023-03-04T02:19:36;0.30;99.90
32660;DHT22;19064;47.912;12.308;2023-03-04T02:22:08;0.30;99.90
32660;DHT22;19064;47.912;12.308;2023-03-04T02:24:38;0.30;99.90
32660;DHT22;19064;47.912;12.308;2023-03-04T02:27:08;0.10;99.90
32660;DHT22;19064;47.912;12.308;2023-03-04T02:29:36;0.10;99.90
32660;DHT22;19064;47.912;12.308;2023-03-04T02:32:04;0.10;99.90
32660;DHT22;19064;47.912;12.308;2023-03-04T02:34:33;0.10;99.90
32660;DHT22;19064;47.912;12.308;2023-03-04T02:37:01;0.10;99.90
32660;DHT22;19064;47.912;12.308;2023-03-04T02:39:30;0.10;99.90
32660;DHT22;19064;47.912;12.308;2023-03-04T02:41:59;0.20;99.90
32660;DHT22;19064;47.912;12.308;2023-03-04T02:44:29;0.20;99.90
32660;DHT22;19064;47.912;12.308;2023-03-04T02:46:57;0.30;99.90
32660;DHT22;19064;47.912;12.308;2023-03-04T02:49:27;0.30;99.90
32660;DHT22;19064;47.912;12.308;2023-03-04T02:51:59;0.30;99.90
32660;DHT22;19064;47.912;12.308;2023-03-04T02:54:27;0.30;99.90
32660;DHT22;19064;47.912;12.308;2023-03-04T02:56:56;0.30;99.90
32660;DHT22;19064;47.912;12.308;2023-03-04T02:59:23;0.20;99.90
32660;DHT22;19064;47.912;12.308;2023-03-04T03:01:52;0.20;99.90
32660;DHT22;19064;47.912;12.308;2023-03-04T03:04:23;0.20;99.90
32660;DHT22;19064;47.912;12.308;2023-03-04T03:06:51;0.20;99.90
32660;DHT22;19064;47.912;12.308;2023-03-04T03:09:19;0.10;99.90
32660;DHT22;19064;47.912;12.308;2023-03-04T03:11:47;0.00;99.90
32660;DHT22;19064;47.912;12.308;2023-03-04T03:14:15;-0.10;99.90
32660;DHT22;19064;47.912;12.308;2023-03-04T03:16:43;-0.10;99.90
32660;DHT22;19064;47.912;12.308;2023-03-04T03:19:12;-0.10;99.90
32660;DHT22;19064;47.912;12.308;2023-03-04T03:21:38;-0.10;99.90
32660;DHT22;19064;47.912;12.308;2023-03-04T03:24:06;-0.10;99.90
32660;DHT22;19064;47.912;12.308;2023-03-04T03:26:34;0.00;99.90
32660;DHT22;19064;47.912;12.308;2023-03-04T03:29:01;0.00;99.90
32660;DHT22;19064;47.912;12.308;2023-03-04T03:31:32;0.00;99.90
32660;DHT22;19064;47.912;12.308;2023-03-04T03:34:00;0.00;99.90
32660;DHT22;19064;47.912;12.308;2023-03-04T03:36:29;0.00;99.90
32660;DHT22;19064;47.912;12.308;2023-03-04T03:38:57;0.00;99.90
32660;DHT22;19064;47.912;12.308;2023-03-04T03:41:27;0.00;99.90
32660;DHT22;19064;47.912;12.308;2023-03-04T03:43:54;0.00;99.90
32660;DHT22;19064;47.912;12.308;2023-03-04T03:46:22;0.00;99.90
32660;DHT22;19064;47.912;12.308;2023-03-04T03:48:50;-0.10;99.90
32660;DHT22;19064;47.912;12.308;2023-03-04T03:51:18;-0.10;99.90
32660;DHT22;19064;47.912;12.308;2023-03-04T03:53:46;0.00;99.90
32660;DHT22;19064;47.912;12.308;2023-03-04T03:56:13;0.00;99.90
32660;DHT22;19064;47.912;12.308;2023-03-04T03:58:41;0.10;99.90
32660;DHT22;19064;47.912;12.308;2023-03-04T04:01:09;0.20;99.90
32660;DHT22;19064;47.912;12.308;2023-03-04T04:03:37;0.20;99.90
32660;DHT22;19064;47.912;12.308;2023-03-04T04:06:04;0.10;99.90
32660;DHT22;19064;47.912;12.308;2023-03-04T04:08:32;0.20;99.90
32660;DHT22;19064;47.912;12.308;2023-03-04T04:11:12;0.10;99.90
32660;DHT22;19064;47.912;12.308;2023-03-04T04:13:39;0.10;99.90
32660;DHT22;19064;47.912;12.308;2023-03-04T04:16:08;0.20;99.90
32660;DHT22;19064;47.912;12.308;2023-03-04T04:18:38;0.20;99.90
32660;DHT22;19064;47.912;12.308;2023-03-04T04:21:06;0.30;99.90
32660;DHT22;19064;47.912;12.308;2023-03-04T04:23:34;0.40;99.90
32660;DHT22;19064;47.912;12.308;2023-03-04T04:26:03;0.40;99.90
32660;DHT22;19064;47.912;12.308;2023-03-04T04:28:32;0.40;99.90
32660;DHT22;19064;47.912;12.308;2023-03-04T04:31:00;0.40;99.90
32660;DHT22;19064;47.912;12.308;2023-03-04T04:33:27;0.40;99.90
32660;DHT22;19064;47.912;12.308;2023-03-04T04:35:55;0.50;99.90
32660;DHT22;19064;47.912;12.308;2023-03-04T04:38:23;0.60;99.90
32660;DHT22;19064;47.912;12.308;2023-03-04T04:40:51;0.50;99.90
32660;DHT22;19064;47.912;12.308;2023-03-04T04:43:23;0.50;99.90
32660;DHT22;19064;47.912;12.308;2023-03-04T04:45:51;0.60;99.90
32660;DHT22;19064;47.912;12.308;2023-03-04T04:48:19;0.60;99.90
32660;DHT22;19064;47.912;12.308;2023-03-04T04:50:52;0.70;99.90
32660;DHT22;19064;47.912;12.308;2023-03-04T04:53:20;0.60;99.90
32660;DHT22;19064;47.912;12.308;2023-03-04T04:55:48;0.70;99.90
32660;DHT22;19064;47.912;12.308;2023-03-04T04:58:16;0.70;99.90
32660;DHT22;19064;47.912;12.308;2023-03-04T05:00:48;0.70;99.90
32660;DHT22;19064;47.912;12.308;2023-03-04T05:03:19;0.70;99.90
32660;DHT22;19064;47.912;12.308;2023-03-04T05:05:47;0.70;99.90
32660;DHT22;19064;47.912;12.308;2023-03-04T05:08:15;0.60;99.90
32660;DHT22;19064;47.912;12.308;2023-03-04T05:10:43;0.70;99.90
32660;DHT22;19064;47.912;12.308;2023-03-04T05:13:11;0.70;99.90
32660;DHT22;19064;47.912;12.308;2023-03-04T05:15:38;0.70;99.90
32660;DHT22;19064;47.912;12.308;2023-03-04T05:18:10;0.70;99.90
32660;DHT22;19064;47.912;12.308;2023-03-04T05:20:38;0.70;99.90
32660;DHT22;19064;47.912;12.308;2023-03-04T05:23:08;0.70;99.90
32660;DHT22;19064;47.912;12.308;2023-03-04T05:25:36;0.80;99.90
32660;DHT22;19064;47.912;12.308;2023-03-04T05:28:04;0.80;99.90
32660;DHT22;19064;47.912;12.308;2023-03-04T05:30:32;0.80;99.90
32660;DHT22;19064;47.912;12.308;2023-03-04T05:33:00;0.80;99.90
32660;DHT22;19064;47.912;12.308;2023-03-04T05:35:29;0.90;99.90
32660;DHT22;19064;47.912;12.308;2023-03-04T05:37:57;1.10;99.90
32660;DHT22;19064;47.912;12.308;2023-03-04T05:40:25;1.10;99.90
32660;DHT22;19064;47.912;12.308;2023-03-04T05:42:53;1.20;99.90
32660;DHT22;19064;47.912;12.308;2023-03-04T05:45:22;1.20;99.90
32660;DHT22;19064;47.912;12.308;2023-03-04T05:47:50;1.10;99.90
32660;DHT22;19064;47.912;12.308;2023-03-04T05:50:18;1.20;99.90
32660;DHT22;19064;47.912;12.308;2023-03-04T05:52:47;1.10;99.90
32660;DHT22;19064;47.912;12.308;2023-03-04T05:55:16;1.10;99.90
32660;DHT22;19064;47.912;12.308;2023-03-04T05:57:43;1.20;99.90
32660;DHT22;19064;47.912;12.308;2023-03-04T06:00:12;1.10;99.90
32660;DHT22;19064;47.912;12.308;2023-03-04T06:02:40;1.00;99.90
32660;DHT22;19064;47.912;12.308;2023-03-04T06:05:11;1.10;99.90
32660;DHT22;19064;47.912;12.308;2023-03-04T06:07:39;1.20;99.90
32660;DHT22;19064;47.912;12.308;2023-03-04T06:10:10;1.10;99.90
32660;DHT22;19064;47.912;12.308;2023-03-04T06:12:39;1.00;99.90
32660;DHT22;19064;47.912;12.308;2023-03-04T06:15:07;1.10;99.90
32660;DHT22;19064;47.912;12.308;2023-03-04T06:17:36;1.10;99.90
32660;DHT22;19064;47.912;12.308;2023-03-04T06:20:08;1.10;99.90
32660;DHT22;19064;47.912;12.308;2023-03-04T06:22:36;1.00;99.90
32660;DHT22;19064;47.912;12.308;2023-03-04T06:25:04;1.10;99.90
32660;DHT22;19064;47.912;12.308;2023-03-04T06:27:38;1.00;99.90
32660;DHT22;19064;47.912;12.308;2023-03-04T06:30:06;1.00;99.90
32660;DHT22;19064;47.912;12.308;2023-03-04T06:32:34;1.00;99.90
32660;DHT22;19064;47.912;12.308;2023-03-04T06:35:02;1.00;99.90
32660;DHT22;19064;47.912;12.308;2023-03-04T06:37:31;1.00;99.90
32660;DHT22;19064;47.912;12.308;2023-03-04T06:39:58;1.20;99.90
32660;DHT22;19064;47.912;12.308;2023-03-04T06:42:27;1.40;99.90
32660;DHT22;19064;47.912;12.308;2023-03-04T06:45:08;1.30;99.90
32660;DHT22;19064;47.912;12.308;2023-03-04T06:47:36;1.40;99.90
32660;DHT22;19064;47.912;12.308;2023-03-04T06:50:04;1.50;99.90
32660;DHT22;19064;47.912;12.308;2023-03-04T06:52:32;1.50;99.90
32660;DHT22;19064;47.912;12.308;2023-03-04T06:55:00;1.30;99.90
32660;DHT22;19064;47.912;12.308;2023-03-04T06:57:28;1.20;99.90
32660;DHT22;19064;47.912;12.308;2023-03-04T06:59:57;1.30;99.90
32660;DHT22;19064;47.912;12.308;2023-03-04T07:02:25;1.40;99.90
32660;DHT22;19064;47.912;12.308;2023-03-04T07:04:53;1.50;99.90
32660;DHT22;19064;47.912;12.308;2023-03-04T07:07:20;1.50;99.90
32660;DHT22;19064;47.912;12.308;2023-03-04T07:09:48;1.70;99.90
32660;DHT22;19064;47.912;12.308;2023-03-04T07:12:16;1.70;99.90
32660;DHT22;19064;47.912;12.308;2023-03-04T07:14:44;1.60;99.90
32660;DHT22;19064;47.912;12.308;2023-03-04T07:17:13;1.80;99.90
32660;DHT22;19064;47.912;12.308;2023-03-04T07:19:41;1.90;99.90
32660;DHT22;19064;47.912;12.308;2023-03-04T07:22:09;1.90;99.90
32660;DHT22;19064;47.912;12.308;2023-03-04T07:24:36;1.90;99.90
32660;DHT22;19064;47.912;12.308;2023-03-04T07:27:04;1.90;99.90
32660;DHT22;19064;47.912;12.308;2023-03-04T07:29:32;2.00;99.90
32660;DHT22;19064;47.912;12.308;2023-03-04T07:32:00;1.90;99.90
32660;DHT22;19064;47.912;12.308;2023-03-04T07:34:29;2.00;99.90
32660;DHT22;19064;47.912;12.308;2023-03-04T07:36:56;2.00;99.90
32660;DHT22;19064;47.912;12.308;2023-03-04T07:39:26;2.00;99.90
32660;DHT22;19064;47.912;12.308;2023-03-04T07:41:54;2.10;99.90
32660;DHT22;19064;47.912;12.308;2023-03-04T07:44:22;2.10;99.90
32660;DHT22;19064;47.912;12.308;2023-03-04T07:46:50;2.20;99.90
32660;DHT22;19064;47.912;12.308;2023-03-04T07:49:17;2.30;99.90
32660;DHT22;19064;47.912;12.308;2023-03-04T07:51:47;2.30;99.90
32660;DHT22;19064;47.912;12.308;2023-03-04T07:54:17;2.30;99.90
32660;DHT22;19064;47.912;12.308;2023-03-04T07:56:45;2.30;99.90
32660;DHT22;19064;47.912;12.308;2023-03-04T07:59:13;2.40;99.90
32660;DHT22;19064;47.912;12.308;2023-03-04T08:01:40;2.40;99.90
32660;DHT22;19064;47.912;12.308;2023-03-04T08:04:10;2.40;99.90
32660;DHT22;19064;47.912;12.308;2023-03-04T08:06:38;2.40;99.90
32660;DHT22;19064;47.912;12.308;2023-03-04T08:09:10;2.40;99.90
32660;DHT22;19064;47.912;12.308;2023-03-04T08:11:39;2.50;99.90
32660;DHT22;19064;47.912;12.308;2023-03-04T08:14:07;2.50;99.90
32660;DHT22;19064;47.912;12.308;2023-03-04T08:16:35;2.50;99.90
32660;DHT22;19064;47.912;12.308;2023-03-04T08:19:04;2.60;99.90
32660;DHT22;19064;47.912;12.308;2023-03-04T08:21:32;2.70;99.90
32660;DHT22;19064;47.912;12.308;2023-03-04T08:24:00;2.70;99.90
32660;DHT22;19064;47.912;12.308;2023-03-04T08:26:35;2.80;99.90
32660;DHT22;19064;47.912;12.308;2023-03-04T08:29:07;2.80;99.90
32660;DHT22;19064;47.912;12.308;2023-03-04T08:31:35;3.10;99.90
32660;DHT22;19064;47.912;12.308;2023-03-04T08:34:04;3.50;99.90
32660;DHT22;19064;47.912;12.308;2023-03-04T08:36:33;4.10;99.90
32660;DHT22;19064;47.912;12.308;2023-03-04T08:39:03;4.60;99.90
32660;DHT22;19064;47.912;12.308;2023-03-04T08:41:31;4.70;99.90
32660;DHT22;19064;47.912;12.308;2023-03-04T08:44:00;4.90;99.90
32660;DHT22;19064;47.912;12.308;2023-03-04T08:46:28;5.30;99.90
32660;DHT22;19064;47.912;12.308;2023-03-04T08:48:56;5.60;99.90
32660;DHT22;19064;47.912;12.308;2023-03-04T08:51:24;5.90;99.90
32660;DHT22;19064;47.912;12.308;2023-03-04T08:53:54;6.10;99.90
32660;DHT22;19064;47.912;12.308;2023-03-04T08:56:21;6.40;99.90
32660;DHT22;19064;47.912;12.308;2023-03-04T08:58:49;6.30;99.90
32660;DHT22;19064;47.912;12.308;2023-03-04T09:01:19;6.00;99.90
32660;DHT22;19064;47.912;12.308;2023-03-04T09:03:46;6.30;99.90
32660;DHT22;19064;47.912;12.308;2023-03-04T09:06:15;6.90;99.90
32660;DHT22;19064;47.912;12.308;2023-03-04T09:08:43;6.90;99.90
32660;DHT22;19064;47.912;12.308;2023-03-04T09:11:12;6.90;99.90
32660;DHT22;19064;47.912;12.308;2023-03-04T09:13:39;6.80;99.90
32660;DHT22;19064;47.912;12.308;2023-03-04T09:16:07;6.70;99.90
32660;DHT22;19064;47.912;12.308;2023-03-04T09:18:37;7.30;99.90
32660;DHT22;19064;47.912;12.308;2023-03-04T09:21:05;7.70;99.90
32660;DHT22;19064;47.912;12.308;2023-03-04T09:23:36;8.20;99.90
32660;DHT22;19064;47.912;12.308;2023-03-04T09:26:12;8.80;99.90
32660;DHT22;19064;47.912;12.308;2023-03-04T09:28:40;9.10;99.90
32660;DHT22;19064;47.912;12.308;2023-03-04T09:31:11;9.10;99.90
32660;DHT22;19064;47.912;12.308;2023-03-04T09:33:40;9.00;99.90
32660;DHT22;19064;47.912;12.308;2023-03-04T09:36:09;9.20;99.90
32660;DHT22;19064;47.912;12.308;2023-03-04T09:38:37;9.20;99.90
32660;DHT22;19064;47.912;12.308;2023-03-04T09:41:06;8.80;99.90
32660;DHT22;19064;47.912;12.308;2023-03-04T09:43:37;8.30;99.90
32660;DHT22;19064;47.912;12.308;2023-03-04T09:46:09;7.80;99.90
32660;DHT22;19064;47.912;12.308;2023-03-04T09:48:39;7.30;99.90
32660;DHT22;19064;47.912;12.308;2023-03-04T09:51:16;6.80;99.90
32660;DHT22;19064;47.912;12.308;2023-03-04T09:53:46;6.60;99.90
32660;DHT22;19064;47.912;12.308;2023-03-04T09:56:15;6.50;99.90
32660;DHT22;19064;47.912;12.308;2023-03-04T09:58:46;6.10;99.90
32660;DHT22;19064;47.912;12.308;2023-03-04T10:01:18;6.00;99.90
32660;DHT22;19064;47.912;12.308;2023-03-04T10:03:47;5.80;99.90
32660;DHT22;19064;47.912;12.308;2023-03-04T10:06:20;5.90;99.90
32660;DHT22;19064;47.912;12.308;2023-03-04T10:08:53;6.10;99.90
32660;DHT22;19064;47.912;12.308;2023-03-04T10:11:24;6.20;99.90
32660;DHT22;19064;47.912;12.308;2023-03-04T10:13:55;6.20;99.90
32660;DHT22;19064;47.912;12.308;2023-03-04T10:16:25;6.20;99.90
32660;DHT22;19064;47.912;12.308;2023-03-04T10:18:57;6.30;99.90
32660;DHT22;19064;47.912;12.308;2023-03-04T10:21:29;6.40;99.90
32660;DHT22;19064;47.912;12.308;2023-03-04T10:23:59;6.40;99.90
32660;DHT22;19064;47.912;12.308;2023-03-04T10:26:28;6.50;99.90
32660;DHT22;19064;47.912;12.308;2023-03-04T10:28:58;6.50;99.90
32660;DHT22;19064;47.912;12.308;2023-03-04T10:31:30;6.60;99.90
32660;DHT22;19064;47.912;12.308;2023-03-04T10:33:58;6.60;99.90
32660;DHT22;19064;47.912;12.308;2023-03-04T10:36:38;6.60;99.90
32660;DHT22;19064;47.912;12.308;2023-03-04T10:39:11;6.60;99.90
32660;DHT22;19064;47.912;12.308;2023-03-04T10:41:40;6.40;99.90
32660;DHT22;19064;47.912;12.308;2023-03-04T10:44:12;6.40;99.90
32660;DHT22;19064;47.912;12.308;2023-03-04T10:46:42;6.40;99.90
32660;DHT22;19064;47.912;12.308;2023-03-04T10:49:11;6.50;99.90
32660;DHT22;19064;47.912;12.308;2023-03-04T10:51:45;6.60;99.90
32660;DHT22;19064;47.912;12.308;2023-03-04T10:54:20;6.60;99.90
32660;DHT22;19064;47.912;12.308;2023-03-04T10:56:52;6.70;99.90
32660;DHT22;19064;47.912;12.308;2023-03-04T11:02:22;6.80;99.90
32660;DHT22;19064;47.912;12.308;2023-03-04T11:04:52;6.80;99.90
32660;DHT22;19064;47.912;12.308;2023-03-04T11:07:22;6.90;99.90
32660;DHT22;19064;47.912;12.308;2023-03-04T11:09:50;6.80;99.90
32660;DHT22;19064;47.912;12.308;2023-03-04T11:12:19;6.70;99.90
32660;DHT22;19064;47.912;12.308;2023-03-04T11:14:46;6.60;99.90
32660;DHT22;19064;47.912;12.308;2023-03-04T11:17:21;6.40;99.90
32660;DHT22;19064;47.912;12.308;2023-03-04T11:19:49;6.40;99.90
32660;DHT22;19064;47.912;12.308;2023-03-04T11:22:17;6.40;99.90
32660;DHT22;19064;47.912;12.308;2023-03-04T11:24:47;6.30;99.90
32660;DHT22;19064;47.912;12.308;2023-03-04T11:27:18;6.40;99.90
32660;DHT22;19064;47.912;12.308;2023-03-04T11:29:49;6.50;99.90
32660;DHT22;19064;47.912;12.308;2023-03-04T11:32:19;6.60;99.90
32660;DHT22;19064;47.912;12.308;2023-03-04T11:34:49;6.60;99.90
32660;DHT22;19064;47.912;12.308;2023-03-04T11:37:20;6.60;99.90
32660;DHT22;19064;47.912;12.308;2023-03-04T11:39:51;6.70;99.90
32660;DHT22;19064;47.912;12.308;2023-03-04T11:42:23;6.90;99.90
32660;DHT22;19064;47.912;12.308;2023-03-04T11:44:55;6.80;99.90
32660;DHT22;19064;47.912;12.308;2023-03-04T11:47:28;6.80;99.90
32660;DHT22;19064;47.912;12.308;2023-03-04T11:50:14;6.80;99.90
32660;DHT22;19064;47.912;12.308;2023-03-04T11:52:58;6.90;99.90
32660;DHT22;19064;47.912;12.308;2023-03-04T11:55:34;7.00;99.90
32660;DHT22;19064;47.912;12.308;2023-03-04T11:58:08;7.10;99.90
32660;DHT22;19064;47.912;12.308;2023-03-04T12:00:39;7.10;99.90
32660;DHT22;19064;47.912;12.308;2023-03-04T12:05:53;7.30;99.90
32660;DHT22;19064;47.912;12.308;2023-03-04T12:08:28;7.40;99.90
32660;DHT22;19064;47.912;12.308;2023-03-04T12:11:04;7.40;99.90
32660;DHT22;19064;47.912;12.308;2023-03-04T12:13:55;7.40;99.90
32660;DHT22;19064;47.912;12.308;2023-03-04T12:16:29;7.40;99.90
32660;DHT22;19064;47.912;12.308;2023-03-04T12:19:04;7.50;99.90
32660;DHT22;19064;47.912;12.308;2023-03-04T12:21:45;7.50;99.90
32660;DHT22;19064;47.912;12.308;2023-03-04T12:24:29;7.50;99.90
32660;DHT22;19064;47.912;12.308;2023-03-04T12:27:00;7.50;99.90
32660;DHT22;19064;47.912;12.308;2023-03-04T12:29:35;7.60;99.90
32660;DHT22;19064;47.912;12.308;2023-03-04T12:32:07;7.60;99.90
32660;DHT22;19064;47.912;12.308;2023-03-04T12:34:51;7.60;99.90
32660;DHT22;19064;47.912;12.308;2023-03-04T12:37:24;7.40;99.90
32660;DHT22;19064;47.912;12.308;2023-03-04T12:42:44;7.40;99.90
32660;DHT22;19064;47.912;12.308;2023-03-04T12:45:16;7.40;99.90
32660;DHT22;19064;47.912;12.308;2023-03-04T12:47:50;7.20;99.90
32660;DHT22;19064;47.912;12.308;2023-03-04T12:50:23;7.10;99.90
32660;DHT22;19064;47.912;12.308;2023-03-04T12:52:55;7.10;99.90
32660;DHT22;19064;47.912;12.308;2023-03-04T12:55:27;7.20;99.90
32660;DHT22;19064;47.912;12.308;2023-03-04T12:57:58;7.20;99.90
32660;DHT22;19064;47.912;12.308;2023-03-04T13:00:29;7.10;99.90
32660;DHT22;19064;47.912;12.308;2023-03-04T13:03:07;7.10;99.90
32660;DHT22;19064;47.912;12.308;2023-03-04T13:05:43;7.10;99.90
32660;DHT22;19064;47.912;12.308;2023-03-04T13:08:22;7.20;99.90
32660;DHT22;19064;47.912;12.308;2023-03-04T13:10:52;7.30;99.90
32660;DHT22;19064;47.912;12.308;2023-03-04T13:13:37;7.30;99.90
32660;DHT22;19064;47.912;12.308;2023-03-04T13:16:14;7.30;99.90
32660;DHT22;19064;47.912;12.308;2023-03-04T13:18:56;7.30;99.90
32660;DHT22;19064;47.912;12.308;2023-03-04T13:21:25;7.20;99.90
32660;DHT22;19064;47.912;12.308;2023-03-04T13:23:54;7.20;99.90
32660;DHT22;19064;47.912;12.308;2023-03-04T13:26:22;7.20;99.90
32660;DHT22;19064;47.912;12.308;2023-03-04T13:29:07;7.30;99.90
32660;DHT22;19064;47.912;12.308;2023-03-04T13:37:20;7.50;99.90
32660;DHT22;19064;47.912;12.308;2023-03-04T13:42:40;7.40;99.90
32660;DHT22;19064;47.912;12.308;2023-03-04T13:47:56;7.30;99.90
32660;DHT22;19064;47.912;12.308;2023-03-04T13:50:27;7.20;99.90
32660;DHT22;19064;47.912;12.308;2023-03-04T13:52:59;7.30;99.90
32660;DHT22;19064;47.912;12.308;2023-03-04T13:55:30;7.30;99.90
32660;DHT22;19064;47.912;12.308;2023-03-04T13:57:59;7.30;99.90
32660;DHT22;19064;47.912;12.308;2023-03-04T14:00:27;7.30;99.90
32660;DHT22;19064;47.912;12.308;2023-03-04T14:02:56;7.40;99.90
32660;DHT22;19064;47.912;12.308;2023-03-04T14:05:41;7.40;99.90
32660;DHT22;19064;47.912;12.308;2023-03-04T14:08:17;7.40;99.90
32660;DHT22;19064;47.912;12.308;2023-03-04T14:10:53;7.30;99.90
32660;DHT22;19064;47.912;12.308;2023-03-04T14:13:21;7.40;99.90
32660;DHT22;19064;47.912;12.308;2023-03-04T14:15:53;7.50;99.90
32660;DHT22;19064;47.912;12.308;2023-03-04T14:18:27;7.50;99.90
32660;DHT22;19064;47.912;12.308;2023-03-04T14:20:55;7.40;99.90
32660;DHT22;19064;47.912;12.308;2023-03-04T14:23:26;7.30;99.90
32660;DHT22;19064;47.912;12.308;2023-03-04T14:26:07;7.30;99.90
32660;DHT22;19064;47.912;12.308;2023-03-04T14:28:45;7.20;99.90
32660;DHT22;19064;47.912;12.308;2023-03-04T14:31:17;7.20;99.90
32660;DHT22;19064;47.912;12.308;2023-03-04T14:33:47;7.10;99.90
32660;DHT22;19064;47.912;12.308;2023-03-04T14:36:16;7.10;99.90
32660;DHT22;19064;47.912;12.308;2023-03-04T14:38:48;7.10;99.90
32660;DHT22;19064;47.912;12.308;2023-03-04T14:41:18;7.00;99.90
32660;DHT22;19064;47.912;12.308;2023-03-04T14:43:49;6.90;99.90
32660;DHT22;19064;47.912;12.308;2023-03-04T14:46:21;6.90;99.90
32660;DHT22;19064;47.912;12.308;2023-03-04T14:48:52;6.90;99.90
32660;DHT22;19064;47.912;12.308;2023-03-04T14:51:31;7.00;99.90
32660;DHT22;19064;47.912;12.308;2023-03-04T14:54:02;6.90;99.90
32660;DHT22;19064;47.912;12.308;2023-03-04T14:56:31;6.80;99.90
32660;DHT22;19064;47.912;12.308;2023-03-04T14:59:00;6.80;99.90
32660;DHT22;19064;47.912;12.308;2023-03-04T15:01:29;6.60;99.90
32660;DHT22;19064;47.912;12.308;2023-03-04T15:04:00;6.50;99.90
32660;DHT22;19064;47.912;12.308;2023-03-04T15:06:29;6.40;99.90
32660;DHT22;19064;47.912;12.308;2023-03-04T15:08:58;6.30;99.90
32660;DHT22;19064;47.912;12.308;2023-03-04T15:11:28;6.30;99.90
32660;DHT22;19064;47.912;12.308;2023-03-04T15:13:56;6.30;99.90
32660;DHT22;19064;47.912;12.308;2023-03-04T15:16:25;6.20;99.90
32660;DHT22;19064;47.912;12.308;2023-03-04T15:18:57;6.10;99.90
32660;DHT22;19064;47.912;12.308;2023-03-04T15:21:33;6.20;99.90
32660;DHT22;19064;47.912;12.308;2023-03-04T15:24:02;6.10;99.90
32660;DHT22;19064;47.912;12.308;2023-03-04T15:26:31;6.10;99.90
32660;DHT22;19064;47.912;12.308;2023-03-04T15:28:59;6.00;99.90
32660;DHT22;19064;47.912;12.308;2023-03-04T15:31:27;5.90;99.90
32660;DHT22;19064;47.912;12.308;2023-03-04T15:33:55;5.90;99.90
32660;DHT22;19064;47.912;12.308;2023-03-04T15:36:23;5.80;99.90
32660;DHT22;19064;47.912;12.308;2023-03-04T15:38:52;5.70;99.90
32660;DHT22;19064;47.912;12.308;2023-03-04T15:41:21;5.70;99.90
32660;DHT22;19064;47.912;12.308;2023-03-04T15:43:52;5.60;99.90
32660;DHT22;19064;47.912;12.308;2023-03-04T15:46:20;5.60;99.90
32660;DHT22;19064;47.912;12.308;2023-03-04T15:48:48;5.50;99.90
32660;DHT22;19064;47.912;12.308;2023-03-04T15:51:16;5.40;99.90
32660;DHT22;19064;47.912;12.308;2023-03-04T15:53:45;5.20;99.90
32660;DHT22;19064;47.912;12.308;2023-03-04T15:56:16;5.10;99.90
32660;DHT22;19064;47.912;12.308;2023-03-04T15:58:45;5.00;99.90
32660;DHT22;19064;47.912;12.308;2023-03-04T16:01:14;4.90;99.90
32660;DHT22;19064;47.912;12.308;2023-03-04T16:03:42;4.70;99.90
32660;DHT22;19064;47.912;12.308;2023-03-04T16:06:10;4.70;99.90